עמוד ראשי
METAR-TAF:

METAR-TAF

שדות תעופה :

Akeno, יפן

קו רוחב: 34-32N, קו אורך: 136-41E, גובה: 6מטר

תצפית מזג אוויר נוכחית

הדו"ח נערך לפני 5 שעות ו 4דקות, בשעה 05:34 UTC
רוח 4קשר מכיוון צפון/צפון-מזרח, משתנה בין צפון ו מזרח/צפון-מזרח
טמפרטורת 29 צלסיוס
לחות 79%
לחץ 1012 hPa
ראות 10 קילומטר או יותר
מעט עננים בגובה 1500רגל
מעט עננים בגובה 2000רגל , קומולונימבוס.
עננים פזורים בגובה 3000רגל
עננים בינוניים בגובה 23000רגל
סופת רעמים

METAR: RJOE 140534Z 03004KT 010V070 9999 TS FEW015 FEW020CB SCT030 BKN230 29/25 Q1012 RMK 2CU015 2CB020 3CU030 6CI230 A2989 FBL TS 10KM NW MOV NE

זמן: 19:38 (10:38 UTC)


TAF: חסר

תצפיות ותחזיות מזג אוויר לגבי יותר מ- 4,000 שדות תעופה ברחבי העולם. דוחות METAR ו- TAF.

התחנות הזמינות מסומנות בנקודות צהובות ואדומות על גבי המפה.

העבר את העכבר לנקודה הצבעונית על מנת לראות את שם התחנה.

לאחר מכן, לחץ כדי לראות את תוכן ואת תחזיות מזג האוויר.

כדי לשנות את המפה: לחץ על הכפתורים הירוקים עם הפלוס השחור כדי להתקרב; על הכפתור הירוק עם המקף כדי להתרחק; או בחיצים הירוקים למפות סמוכות.


METAR-TAF: